sensor_id;sensor_type;location;lat;lon;timestamp;P1;durP1;ratioP1;P2;durP2;ratioP2
27539;SDS011;15906;52.046;4.724;2023-07-22T00:00:14;21.20;;;12.00;;
27539;SDS011;15906;52.046;4.724;2023-07-22T00:02:41;19.42;;;11.32;;
27539;SDS011;15906;52.046;4.724;2023-07-22T00:05:07;17.38;;;11.25;;
27539;SDS011;15906;52.046;4.724;2023-07-22T00:07:35;18.92;;;11.27;;
27539;SDS011;15906;52.046;4.724;2023-07-22T00:10:01;20.77;;;12.18;;
27539;SDS011;15906;52.046;4.724;2023-07-22T00:12:26;20.02;;;10.90;;
27539;SDS011;15906;52.046;4.724;2023-07-22T00:14:52;20.85;;;10.65;;
27539;SDS011;15906;52.046;4.724;2023-07-22T00:17:20;17.15;;;10.15;;
27539;SDS011;15906;52.046;4.724;2023-07-22T00:19:46;20.67;;;11.10;;
27539;SDS011;15906;52.046;4.724;2023-07-22T00:22:13;20.27;;;10.48;;
27539;SDS011;15906;52.046;4.724;2023-07-22T00:24:40;18.98;;;10.15;;
27539;SDS011;15906;52.046;4.724;2023-07-22T00:27:05;17.80;;;9.75;;
27539;SDS011;15906;52.046;4.724;2023-07-22T00:29:33;20.48;;;11.45;;
27539;SDS011;15906;52.046;4.724;2023-07-22T00:31:59;19.60;;;10.05;;
27539;SDS011;15906;52.046;4.724;2023-07-22T00:34:25;19.35;;;11.00;;
27539;SDS011;15906;52.046;4.724;2023-07-22T00:36:51;17.85;;;9.27;;
27539;SDS011;15906;52.046;4.724;2023-07-22T00:39:17;19.52;;;9.73;;
27539;SDS011;15906;52.046;4.724;2023-07-22T00:41:43;17.10;;;9.95;;
27539;SDS011;15906;52.046;4.724;2023-07-22T00:44:09;15.45;;;9.45;;
27539;SDS011;15906;52.046;4.724;2023-07-22T00:46:36;15.65;;;9.30;;
27539;SDS011;15906;52.046;4.724;2023-07-22T00:49:02;18.58;;;10.80;;
27539;SDS011;15906;52.046;4.724;2023-07-22T00:51:29;18.98;;;10.52;;
27539;SDS011;15906;52.046;4.724;2023-07-22T00:53:54;21.48;;;12.05;;
27539;SDS011;15906;52.046;4.724;2023-07-22T00:56:20;17.98;;;10.45;;
27539;SDS011;15906;52.046;4.724;2023-07-22T00:58:46;16.95;;;10.32;;
27539;SDS011;15906;52.046;4.724;2023-07-22T01:01:12;19.63;;;10.15;;
27539;SDS011;15906;52.046;4.724;2023-07-22T01:03:37;15.93;;;9.40;;
27539;SDS011;15906;52.046;4.724;2023-07-22T01:06:03;16.55;;;10.02;;
27539;SDS011;15906;52.046;4.724;2023-07-22T01:08:29;17.60;;;9.93;;
27539;SDS011;15906;52.046;4.724;2023-07-22T01:10:55;15.35;;;9.65;;
27539;SDS011;15906;52.046;4.724;2023-07-22T01:13:21;16.15;;;10.00;;
27539;SDS011;15906;52.046;4.724;2023-07-22T01:15:46;16.17;;;9.77;;
27539;SDS011;15906;52.046;4.724;2023-07-22T01:18:12;17.33;;;10.00;;
27539;SDS011;15906;52.046;4.724;2023-07-22T01:20:37;16.35;;;9.60;;
27539;SDS011;15906;52.046;4.724;2023-07-22T01:23:04;16.77;;;9.63;;
27539;SDS011;15906;52.046;4.724;2023-07-22T01:25:30;17.63;;;10.13;;
27539;SDS011;15906;52.046;4.724;2023-07-22T01:27:55;15.52;;;9.63;;
27539;SDS011;15906;52.046;4.724;2023-07-22T01:30:21;17.90;;;10.13;;
27539;SDS011;15906;52.046;4.724;2023-07-22T01:32:47;15.40;;;9.88;;
27539;SDS011;15906;52.046;4.724;2023-07-22T01:35:12;15.30;;;9.65;;
27539;SDS011;15906;52.046;4.724;2023-07-22T01:37:38;15.60;;;9.10;;
27539;SDS011;15906;52.046;4.724;2023-07-22T01:40:04;16.92;;;9.68;;
27539;SDS011;15906;52.046;4.724;2023-07-22T01:42:40;18.55;;;9.20;;
27539;SDS011;15906;52.046;4.724;2023-07-22T01:45:07;11.95;;;7.85;;
27539;SDS011;15906;52.046;4.724;2023-07-22T01:47:34;14.00;;;8.07;;
27539;SDS011;15906;52.046;4.724;2023-07-22T01:50:00;14.00;;;8.45;;
27539;SDS011;15906;52.046;4.724;2023-07-22T01:52:26;17.48;;;8.27;;
27539;SDS011;15906;52.046;4.724;2023-07-22T01:54:52;15.55;;;8.10;;
27539;SDS011;15906;52.046;4.724;2023-07-22T01:57:18;12.48;;;7.43;;
27539;SDS011;15906;52.046;4.724;2023-07-22T01:59:43;12.20;;;7.30;;
27539;SDS011;15906;52.046;4.724;2023-07-22T02:02:09;12.00;;;7.65;;
27539;SDS011;15906;52.046;4.724;2023-07-22T02:04:34;14.55;;;7.85;;
27539;SDS011;15906;52.046;4.724;2023-07-22T02:07:00;11.02;;;6.80;;
27539;SDS011;15906;52.046;4.724;2023-07-22T02:09:25;12.35;;;7.35;;
27539;SDS011;15906;52.046;4.724;2023-07-22T02:11:52;12.80;;;7.10;;
27539;SDS011;15906;52.046;4.724;2023-07-22T02:14:18;15.77;;;6.85;;
27539;SDS011;15906;52.046;4.724;2023-07-22T02:16:44;12.43;;;7.40;;
27539;SDS011;15906;52.046;4.724;2023-07-22T02:19:09;13.13;;;7.97;;
27539;SDS011;15906;52.046;4.724;2023-07-22T02:21:35;14.43;;;6.72;;
27539;SDS011;15906;52.046;4.724;2023-07-22T02:24:01;10.85;;;6.90;;
27539;SDS011;15906;52.046;4.724;2023-07-22T02:26:26;11.60;;;7.15;;
27539;SDS011;15906;52.046;4.724;2023-07-22T02:28:52;11.93;;;6.28;;
27539;SDS011;15906;52.046;4.724;2023-07-22T02:31:17;9.50;;;6.03;;
27539;SDS011;15906;52.046;4.724;2023-07-22T02:33:43;9.90;;;6.85;;
27539;SDS011;15906;52.046;4.724;2023-07-22T02:36:08;9.65;;;6.50;;
27539;SDS011;15906;52.046;4.724;2023-07-22T02:38:34;10.60;;;6.20;;
27539;SDS011;15906;52.046;4.724;2023-07-22T02:41:03;14.20;;;7.05;;
27539;SDS011;15906;52.046;4.724;2023-07-22T02:43:31;13.98;;;6.80;;
27539;SDS011;15906;52.046;4.724;2023-07-22T02:45:59;11.10;;;6.53;;
27539;SDS011;15906;52.046;4.724;2023-07-22T02:48:29;9.70;;;6.07;;
27539;SDS011;15906;52.046;4.724;2023-07-22T02:51:01;9.43;;;5.97;;
27539;SDS011;15906;52.046;4.724;2023-07-22T02:53:31;9.35;;;6.43;;
27539;SDS011;15906;52.046;4.724;2023-07-22T02:55:57;9.75;;;5.93;;
27539;SDS011;15906;52.046;4.724;2023-07-22T02:58:24;7.55;;;5.50;;
27539;SDS011;15906;52.046;4.724;2023-07-22T03:00:49;9.13;;;5.43;;
27539;SDS011;15906;52.046;4.724;2023-07-22T03:03:15;9.13;;;5.70;;
27539;SDS011;15906;52.046;4.724;2023-07-22T03:05:40;9.35;;;6.10;;
27539;SDS011;15906;52.046;4.724;2023-07-22T03:08:06;11.23;;;6.15;;
27539;SDS011;15906;52.046;4.724;2023-07-22T03:10:32;9.13;;;6.15;;
27539;SDS011;15906;52.046;4.724;2023-07-22T03:12:58;10.30;;;6.78;;
27539;SDS011;15906;52.046;4.724;2023-07-22T03:15:24;9.82;;;6.15;;
27539;SDS011;15906;52.046;4.724;2023-07-22T03:17:53;12.02;;;6.57;;
27539;SDS011;15906;52.046;4.724;2023-07-22T03:20:24;8.55;;;6.28;;
27539;SDS011;15906;52.046;4.724;2023-07-22T03:22:50;8.77;;;6.28;;
27539;SDS011;15906;52.046;4.724;2023-07-22T03:25:16;8.43;;;5.85;;
27539;SDS011;15906;52.046;4.724;2023-07-22T03:27:42;8.63;;;5.80;;
27539;SDS011;15906;52.046;4.724;2023-07-22T03:30:10;9.57;;;5.65;;
27539;SDS011;15906;52.046;4.724;2023-07-22T03:32:44;7.93;;;5.55;;
27539;SDS011;15906;52.046;4.724;2023-07-22T03:35:12;8.23;;;6.13;;
27539;SDS011;15906;52.046;4.724;2023-07-22T03:37:38;9.77;;;6.30;;
27539;SDS011;15906;52.046;4.724;2023-07-22T03:40:04;11.32;;;5.32;;
27539;SDS011;15906;52.046;4.724;2023-07-22T03:42:45;9.90;;;5.38;;
27539;SDS011;15906;52.046;4.724;2023-07-22T03:45:14;8.07;;;5.22;;
27539;SDS011;15906;52.046;4.724;2023-07-22T03:47:40;8.38;;;5.18;;
27539;SDS011;15906;52.046;4.724;2023-07-22T03:50:06;8.52;;;5.32;;
27539;SDS011;15906;52.046;4.724;2023-07-22T03:52:32;7.82;;;5.03;;
27539;SDS011;15906;52.046;4.724;2023-07-22T03:54:58;9.02;;;5.60;;
27539;SDS011;15906;52.046;4.724;2023-07-22T03:57:27;9.40;;;4.93;;
27539;SDS011;15906;52.046;4.724;2023-07-22T03:59:53;8.75;;;4.95;;
27539;SDS011;15906;52.046;4.724;2023-07-22T04:02:19;13.48;;;5.95;;
27539;SDS011;15906;52.046;4.724;2023-07-22T04:04:45;12.40;;;6.22;;
27539;SDS011;15906;52.046;4.724;2023-07-22T04:07:10;14.00;;;6.70;;
27539;SDS011;15906;52.046;4.724;2023-07-22T04:09:36;13.77;;;7.18;;
27539;SDS011;15906;52.046;4.724;2023-07-22T04:12:01;11.07;;;6.28;;
27539;SDS011;15906;52.046;4.724;2023-07-22T04:14:27;11.75;;;6.55;;
27539;SDS011;15906;52.046;4.724;2023-07-22T04:16:52;11.38;;;6.28;;
27539;SDS011;15906;52.046;4.724;2023-07-22T04:19:18;19.77;;;9.55;;
27539;SDS011;15906;52.046;4.724;2023-07-22T04:21:43;14.52;;;8.60;;
27539;SDS011;15906;52.046;4.724;2023-07-22T04:24:09;17.42;;;8.63;;
27539;SDS011;15906;52.046;4.724;2023-07-22T04:26:35;18.90;;;9.90;;
27539;SDS011;15906;52.046;4.724;2023-07-22T04:29:01;15.48;;;8.90;;
27539;SDS011;15906;52.046;4.724;2023-07-22T04:31:26;20.40;;;10.18;;
27539;SDS011;15906;52.046;4.724;2023-07-22T04:33:52;20.90;;;10.73;;
27539;SDS011;15906;52.046;4.724;2023-07-22T04:36:17;21.83;;;10.35;;
27539;SDS011;15906;52.046;4.724;2023-07-22T04:38:43;20.35;;;10.68;;
27539;SDS011;15906;52.046;4.724;2023-07-22T04:41:08;19.63;;;10.60;;
27539;SDS011;15906;52.046;4.724;2023-07-22T04:43:35;24.92;;;12.68;;
27539;SDS011;15906;52.046;4.724;2023-07-22T04:46:01;22.08;;;12.38;;
27539;SDS011;15906;52.046;4.724;2023-07-22T04:48:26;29.52;;;12.88;;
27539;SDS011;15906;52.046;4.724;2023-07-22T04:50:52;24.25;;;13.23;;
27539;SDS011;15906;52.046;4.724;2023-07-22T04:53:18;29.83;;;14.65;;
27539;SDS011;15906;52.046;4.724;2023-07-22T04:55:43;28.10;;;14.25;;
27539;SDS011;15906;52.046;4.724;2023-07-22T04:58:09;30.17;;;14.60;;
27539;SDS011;15906;52.046;4.724;2023-07-22T05:00:36;32.53;;;15.50;;
27539;SDS011;15906;52.046;4.724;2023-07-22T05:03:04;28.13;;;14.63;;
27539;SDS011;15906;52.046;4.724;2023-07-22T05:05:31;29.58;;;14.68;;
27539;SDS011;15906;52.046;4.724;2023-07-22T05:07:57;31.77;;;15.65;;
27539;SDS011;15906;52.046;4.724;2023-07-22T05:10:22;31.40;;;15.57;;
27539;SDS011;15906;52.046;4.724;2023-07-22T05:12:48;31.45;;;16.10;;
27539;SDS011;15906;52.046;4.724;2023-07-22T05:15:13;39.17;;;18.80;;
27539;SDS011;15906;52.046;4.724;2023-07-22T05:17:40;33.80;;;16.67;;
27539;SDS011;15906;52.046;4.724;2023-07-22T05:20:06;41.30;;;17.35;;
27539;SDS011;15906;52.046;4.724;2023-07-22T05:22:35;34.38;;;17.38;;
27539;SDS011;15906;52.046;4.724;2023-07-22T05:25:00;35.22;;;17.70;;
27539;SDS011;15906;52.046;4.724;2023-07-22T05:27:26;36.33;;;17.73;;
27539;SDS011;15906;52.046;4.724;2023-07-22T05:29:52;35.42;;;17.48;;
27539;SDS011;15906;52.046;4.724;2023-07-22T05:32:17;33.30;;;17.98;;
27539;SDS011;15906;52.046;4.724;2023-07-22T05:34:43;35.50;;;17.75;;
27539;SDS011;15906;52.046;4.724;2023-07-22T05:37:08;42.75;;;19.40;;
27539;SDS011;15906;52.046;4.724;2023-07-22T05:39:34;33.90;;;17.40;;
27539;SDS011;15906;52.046;4.724;2023-07-22T05:41:59;39.40;;;18.70;;
27539;SDS011;15906;52.046;4.724;2023-07-22T05:44:25;35.35;;;16.13;;
27539;SDS011;15906;52.046;4.724;2023-07-22T05:46:50;39.10;;;19.13;;
27539;SDS011;15906;52.046;4.724;2023-07-22T05:49:16;37.08;;;17.73;;
27539;SDS011;15906;52.046;4.724;2023-07-22T05:51:41;33.03;;;17.52;;
27539;SDS011;15906;52.046;4.724;2023-07-22T05:54:07;33.67;;;18.25;;
27539;SDS011;15906;52.046;4.724;2023-07-22T05:56:33;36.97;;;17.50;;
27539;SDS011;15906;52.046;4.724;2023-07-22T05:58:58;37.00;;;17.92;;
27539;SDS011;15906;52.046;4.724;2023-07-22T06:01:24;35.03;;;18.35;;
27539;SDS011;15906;52.046;4.724;2023-07-22T06:03:50;37.92;;;18.55;;
27539;SDS011;15906;52.046;4.724;2023-07-22T06:06:15;35.83;;;18.40;;
27539;SDS011;15906;52.046;4.724;2023-07-22T06:08:41;34.03;;;18.25;;
27539;SDS011;15906;52.046;4.724;2023-07-22T06:11:07;38.55;;;18.80;;
27539;SDS011;15906;52.046;4.724;2023-07-22T06:13:32;36.30;;;19.63;;
27539;SDS011;15906;52.046;4.724;2023-07-22T06:15:58;37.63;;;19.25;;
27539;SDS011;15906;52.046;4.724;2023-07-22T06:18:23;32.22;;;17.52;;
27539;SDS011;15906;52.046;4.724;2023-07-22T06:20:49;34.67;;;17.73;;
27539;SDS011;15906;52.046;4.724;2023-07-22T06:23:15;33.00;;;18.40;;
27539;SDS011;15906;52.046;4.724;2023-07-22T06:25:40;36.20;;;17.27;;
27539;SDS011;15906;52.046;4.724;2023-07-22T06:28:06;37.70;;;18.38;;
27539;SDS011;15906;52.046;4.724;2023-07-22T06:30:31;35.22;;;17.45;;
27539;SDS011;15906;52.046;4.724;2023-07-22T06:32:57;41.90;;;17.42;;
27539;SDS011;15906;52.046;4.724;2023-07-22T06:35:23;34.03;;;16.48;;
27539;SDS011;15906;52.046;4.724;2023-07-22T06:37:48;31.15;;;17.20;;
27539;SDS011;15906;52.046;4.724;2023-07-22T06:40:14;32.75;;;17.20;;
27539;SDS011;15906;52.046;4.724;2023-07-22T06:42:39;30.05;;;17.58;;
27539;SDS011;15906;52.046;4.724;2023-07-22T06:45:05;34.00;;;18.67;;
27539;SDS011;15906;52.046;4.724;2023-07-22T06:47:31;30.48;;;15.93;;
27539;SDS011;15906;52.046;4.724;2023-07-22T06:49:57;34.38;;;17.35;;
27539;SDS011;15906;52.046;4.724;2023-07-22T06:52:22;29.85;;;17.38;;
27539;SDS011;15906;52.046;4.724;2023-07-22T06:54:48;26.92;;;15.63;;
27539;SDS011;15906;52.046;4.724;2023-07-22T06:57:15;30.90;;;16.92;;
27539;SDS011;15906;52.046;4.724;2023-07-22T06:59:40;32.80;;;17.88;;
27539;SDS011;15906;52.046;4.724;2023-07-22T07:02:06;35.22;;;17.88;;
27539;SDS011;15906;52.046;4.724;2023-07-22T07:04:32;35.92;;;19.15;;
27539;SDS011;15906;52.046;4.724;2023-07-22T07:06:58;33.85;;;17.23;;
27539;SDS011;15906;52.046;4.724;2023-07-22T07:09:24;31.00;;;17.77;;
27539;SDS011;15906;52.046;4.724;2023-07-22T07:11:50;31.30;;;16.60;;
27539;SDS011;15906;52.046;4.724;2023-07-22T07:14:16;27.63;;;15.82;;
27539;SDS011;15906;52.046;4.724;2023-07-22T07:16:42;28.58;;;15.90;;
27539;SDS011;15906;52.046;4.724;2023-07-22T07:19:08;27.67;;;16.05;;
27539;SDS011;15906;52.046;4.724;2023-07-22T07:21:34;27.48;;;16.75;;
27539;SDS011;15906;52.046;4.724;2023-07-22T07:23:59;27.27;;;15.95;;
27539;SDS011;15906;52.046;4.724;2023-07-22T07:26:25;28.88;;;15.52;;
27539;SDS011;15906;52.046;4.724;2023-07-22T07:28:51;29.60;;;16.10;;
27539;SDS011;15906;52.046;4.724;2023-07-22T07:31:17;31.30;;;16.45;;
27539;SDS011;15906;52.046;4.724;2023-07-22T07:33:43;27.73;;;15.85;;
27539;SDS011;15906;52.046;4.724;2023-07-22T07:36:08;25.55;;;14.45;;
27539;SDS011;15906;52.046;4.724;2023-07-22T07:38:34;32.17;;;16.48;;
27539;SDS011;15906;52.046;4.724;2023-07-22T07:41:01;27.02;;;15.05;;
27539;SDS011;15906;52.046;4.724;2023-07-22T07:43:29;25.00;;;15.38;;
27539;SDS011;15906;52.046;4.724;2023-07-22T07:48:51;26.95;;;16.80;;
27539;SDS011;15906;52.046;4.724;2023-07-22T07:51:19;28.10;;;16.67;;
27539;SDS011;15906;52.046;4.724;2023-07-22T07:53:45;25.77;;;17.73;;
27539;SDS011;15906;52.046;4.724;2023-07-22T07:56:14;23.98;;;17.40;;
27539;SDS011;15906;52.046;4.724;2023-07-22T07:58:41;26.13;;;17.40;;
27539;SDS011;15906;52.046;4.724;2023-07-22T08:01:07;25.20;;;17.73;;
27539;SDS011;15906;52.046;4.724;2023-07-22T08:03:33;25.83;;;16.88;;
27539;SDS011;15906;52.046;4.724;2023-07-22T08:06:00;28.58;;;18.20;;
27539;SDS011;15906;52.046;4.724;2023-07-22T08:08:27;25.60;;;18.35;;
27539;SDS011;15906;52.046;4.724;2023-07-22T08:11:06;25.45;;;17.73;;
27539;SDS011;15906;52.046;4.724;2023-07-22T08:13:40;25.98;;;16.98;;
27539;SDS011;15906;52.046;4.724;2023-07-22T08:16:07;24.02;;;16.77;;
27539;SDS011;15906;52.046;4.724;2023-07-22T08:18:34;24.17;;;15.85;;
27539;SDS011;15906;52.046;4.724;2023-07-22T08:21:01;22.85;;;14.93;;
27539;SDS011;15906;52.046;4.724;2023-07-22T08:23:32;21.80;;;13.70;;
27539;SDS011;15906;52.046;4.724;2023-07-22T08:25:58;20.15;;;13.30;;
27539;SDS011;15906;52.046;4.724;2023-07-22T08:28:23;19.23;;;11.73;;
27539;SDS011;15906;52.046;4.724;2023-07-22T08:30:49;17.38;;;10.25;;
27539;SDS011;15906;52.046;4.724;2023-07-22T08:33:15;14.30;;;10.27;;
27539;SDS011;15906;52.046;4.724;2023-07-22T08:35:41;15.68;;;10.95;;
27539;SDS011;15906;52.046;4.724;2023-07-22T08:38:07;15.65;;;10.20;;
27539;SDS011;15906;52.046;4.724;2023-07-22T08:40:34;14.93;;;9.57;;
27539;SDS011;15906;52.046;4.724;2023-07-22T08:43:00;14.75;;;10.23;;
27539;SDS011;15906;52.046;4.724;2023-07-22T08:45:28;16.23;;;8.35;;
27539;SDS011;15906;52.046;4.724;2023-07-22T08:47:57;8.90;;;7.88;;
27539;SDS011;15906;52.046;4.724;2023-07-22T08:50:24;12.02;;;6.63;;
27539;SDS011;15906;52.046;4.724;2023-07-22T08:52:54;10.30;;;5.82;;
27539;SDS011;15906;52.046;4.724;2023-07-22T08:55:19;9.15;;;6.20;;
27539;SDS011;15906;52.046;4.724;2023-07-22T08:57:46;10.80;;;5.75;;
27539;SDS011;15906;52.046;4.724;2023-07-22T09:00:13;9.30;;;5.72;;
27539;SDS011;15906;52.046;4.724;2023-07-22T09:02:39;10.40;;;5.93;;
27539;SDS011;15906;52.046;4.724;2023-07-22T09:05:06;10.93;;;7.43;;
27539;SDS011;15906;52.046;4.724;2023-07-22T09:07:33;9.05;;;6.00;;
27539;SDS011;15906;52.046;4.724;2023-07-22T09:09:58;13.90;;;6.03;;
27539;SDS011;15906;52.046;4.724;2023-07-22T09:12:25;11.10;;;4.78;;
27539;SDS011;15906;52.046;4.724;2023-07-22T09:14:50;13.70;;;6.60;;
27539;SDS011;15906;52.046;4.724;2023-07-22T09:17:18;7.50;;;5.43;;
27539;SDS011;15906;52.046;4.724;2023-07-22T09:19:43;7.65;;;5.20;;
27539;SDS011;15906;52.046;4.724;2023-07-22T09:22:09;8.98;;;4.88;;
27539;SDS011;15906;52.046;4.724;2023-07-22T09:24:34;8.25;;;5.80;;
27539;SDS011;15906;52.046;4.724;2023-07-22T09:27:00;10.63;;;5.30;;
27539;SDS011;15906;52.046;4.724;2023-07-22T09:29:35;7.85;;;5.07;;
27539;SDS011;15906;52.046;4.724;2023-07-22T09:32:07;10.52;;;4.70;;
27539;SDS011;15906;52.046;4.724;2023-07-22T09:34:32;8.15;;;4.63;;
27539;SDS011;15906;52.046;4.724;2023-07-22T09:36:58;6.95;;;4.38;;
27539;SDS011;15906;52.046;4.724;2023-07-22T09:39:29;7.65;;;4.38;;
27539;SDS011;15906;52.046;4.724;2023-07-22T09:41:55;10.15;;;4.32;;
27539;SDS011;15906;52.046;4.724;2023-07-22T09:44:21;6.57;;;3.78;;
27539;SDS011;15906;52.046;4.724;2023-07-22T09:46:48;16.60;;;4.30;;
27539;SDS011;15906;52.046;4.724;2023-07-22T09:49:15;6.72;;;3.80;;
27539;SDS011;15906;52.046;4.724;2023-07-22T09:51:43;6.65;;;4.40;;
27539;SDS011;15906;52.046;4.724;2023-07-22T09:54:09;6.95;;;4.00;;
27539;SDS011;15906;52.046;4.724;2023-07-22T09:56:45;9.70;;;3.80;;
27539;SDS011;15906;52.046;4.724;2023-07-22T09:59:12;10.48;;;4.22;;
27539;SDS011;15906;52.046;4.724;2023-07-22T10:01:38;4.88;;;3.63;;
27539;SDS011;15906;52.046;4.724;2023-07-22T10:04:05;7.22;;;3.50;;
27539;SDS011;15906;52.046;4.724;2023-07-22T10:06:31;5.05;;;3.97;;
27539;SDS011;15906;52.046;4.724;2023-07-22T10:09:00;9.85;;;3.97;;
27539;SDS011;15906;52.046;4.724;2023-07-22T10:11:32;7.10;;;4.00;;
27539;SDS011;15906;52.046;4.724;2023-07-22T10:14:00;6.53;;;4.28;;
27539;SDS011;15906;52.046;4.724;2023-07-22T10:16:27;9.57;;;4.18;;
27539;SDS011;15906;52.046;4.724;2023-07-22T10:18:53;9.57;;;4.45;;
27539;SDS011;15906;52.046;4.724;2023-07-22T10:21:20;6.18;;;4.35;;
27539;SDS011;15906;52.046;4.724;2023-07-22T10:23:47;10.15;;;4.65;;
27539;SDS011;15906;52.046;4.724;2023-07-22T10:26:14;5.65;;;3.97;;
27539;SDS011;15906;52.046;4.724;2023-07-22T10:28:42;11.43;;;4.95;;
27539;SDS011;15906;52.046;4.724;2023-07-22T10:31:09;7.50;;;4.22;;
27539;SDS011;15906;52.046;4.724;2023-07-22T10:33:35;6.35;;;4.68;;
27539;SDS011;15906;52.046;4.724;2023-07-22T10:36:05;9.25;;;4.95;;
27539;SDS011;15906;52.046;4.724;2023-07-22T10:38:32;10.02;;;4.85;;
27539;SDS011;15906;52.046;4.724;2023-07-22T10:40:59;8.48;;;4.88;;
27539;SDS011;15906;52.046;4.724;2023-07-22T10:43:29;7.88;;;4.80;;
27539;SDS011;15906;52.046;4.724;2023-07-22T10:45:57;9.75;;;4.90;;
27539;SDS011;15906;52.046;4.724;2023-07-22T10:48:27;7.18;;;4.43;;
27539;SDS011;15906;52.046;4.724;2023-07-22T10:51:04;6.55;;;4.30;;
27539;SDS011;15906;52.046;4.724;2023-07-22T10:53:44;7.80;;;4.70;;
27539;SDS011;15906;52.046;4.724;2023-07-22T10:56:21;8.65;;;5.15;;
27539;SDS011;15906;52.046;4.724;2023-07-22T11:06:30;5.70;;;3.47;;
27539;SDS011;15906;52.046;4.724;2023-07-22T11:08:56;6.65;;;3.75;;
27539;SDS011;15906;52.046;4.724;2023-07-22T11:11:39;5.28;;;3.13;;
27539;SDS011;15906;52.046;4.724;2023-07-22T11:14:12;7.60;;;2.90;;
27539;SDS011;15906;52.046;4.724;2023-07-22T11:16:38;5.35;;;2.75;;
27539;SDS011;15906;52.046;4.724;2023-07-22T11:19:04;4.75;;;2.55;;
27539;SDS011;15906;52.046;4.724;2023-07-22T11:21:29;6.28;;;2.58;;
27539;SDS011;15906;52.046;4.724;2023-07-22T11:23:55;6.97;;;2.30;;
27539;SDS011;15906;52.046;4.724;2023-07-22T11:26:20;6.30;;;2.40;;
27539;SDS011;15906;52.046;4.724;2023-07-22T11:28:46;5.05;;;2.05;;
27539;SDS011;15906;52.046;4.724;2023-07-22T11:31:12;4.95;;;2.50;;
27539;SDS011;15906;52.046;4.724;2023-07-22T11:33:38;4.03;;;2.35;;
27539;SDS011;15906;52.046;4.724;2023-07-22T11:36:04;4.85;;;2.00;;
27539;SDS011;15906;52.046;4.724;2023-07-22T11:38:30;4.43;;;1.92;;
27539;SDS011;15906;52.046;4.724;2023-07-22T11:40:55;4.75;;;2.25;;
27539;SDS011;15906;52.046;4.724;2023-07-22T11:43:21;4.30;;;2.10;;
27539;SDS011;15906;52.046;4.724;2023-07-22T11:45:47;7.40;;;1.92;;
27539;SDS011;15906;52.046;4.724;2023-07-22T11:48:13;5.53;;;2.10;;
27539;SDS011;15906;52.046;4.724;2023-07-22T11:50:39;3.80;;;2.00;;
27539;SDS011;15906;52.046;4.724;2023-07-22T11:53:04;3.15;;;1.90;;
27539;SDS011;15906;52.046;4.724;2023-07-22T11:55:34;5.07;;;2.00;;
27539;SDS011;15906;52.046;4.724;2023-07-22T11:58:00;4.75;;;2.20;;
27539;SDS011;15906;52.046;4.724;2023-07-22T12:00:26;5.07;;;1.90;;
27539;SDS011;15906;52.046;4.724;2023-07-22T12:02:51;5.85;;;1.58;;
27539;SDS011;15906;52.046;4.724;2023-07-22T12:05:22;2.78;;;1.60;;
27539;SDS011;15906;52.046;4.724;2023-07-22T12:07:47;4.13;;;1.90;;
27539;SDS011;15906;52.046;4.724;2023-07-22T12:10:15;4.10;;;1.67;;
27539;SDS011;15906;52.046;4.724;2023-07-22T12:12:44;4.43;;;1.70;;
27539;SDS011;15906;52.046;4.724;2023-07-22T12:15:15;3.30;;;1.85;;
27539;SDS011;15906;52.046;4.724;2023-07-22T12:20:24;2.90;;;1.60;;
27539;SDS011;15906;52.046;4.724;2023-07-22T12:22:51;4.53;;;2.08;;
27539;SDS011;15906;52.046;4.724;2023-07-22T12:25:17;4.88;;;1.70;;
27539;SDS011;15906;52.046;4.724;2023-07-22T12:27:43;5.60;;;1.90;;
27539;SDS011;15906;52.046;4.724;2023-07-22T12:30:09;3.03;;;1.70;;
27539;SDS011;15906;52.046;4.724;2023-07-22T12:32:35;2.90;;;1.25;;
27539;SDS011;15906;52.046;4.724;2023-07-22T12:35:01;3.97;;;1.58;;
27539;SDS011;15906;52.046;4.724;2023-07-22T12:37:28;3.17;;;1.75;;
27539;SDS011;15906;52.046;4.724;2023-07-22T12:39:53;3.00;;;1.40;;
27539;SDS011;15906;52.046;4.724;2023-07-22T12:42:19;3.95;;;1.80;;
27539;SDS011;15906;52.046;4.724;2023-07-22T12:44:44;2.63;;;1.50;;
27539;SDS011;15906;52.046;4.724;2023-07-22T12:47:11;4.30;;;2.00;;
27539;SDS011;15906;52.046;4.724;2023-07-22T12:49:36;6.47;;;1.52;;
27539;SDS011;15906;52.046;4.724;2023-07-22T12:52:02;4.13;;;1.50;;
27539;SDS011;15906;52.046;4.724;2023-07-22T12:54:30;4.18;;;1.60;;
27539;SDS011;15906;52.046;4.724;2023-07-22T12:56:56;2.05;;;1.42;;
27539;SDS011;15906;52.046;4.724;2023-07-22T12:59:22;8.40;;;2.00;;
27539;SDS011;15906;52.046;4.724;2023-07-22T13:01:47;5.75;;;1.67;;
27539;SDS011;15906;52.046;4.724;2023-07-22T13:04:13;2.15;;;1.40;;
27539;SDS011;15906;52.046;4.724;2023-07-22T13:06:38;2.17;;;1.50;;
27539;SDS011;15906;52.046;4.724;2023-07-22T13:09:04;5.53;;;1.60;;
27539;SDS011;15906;52.046;4.724;2023-07-22T13:11:30;4.82;;;1.50;;
27539;SDS011;15906;52.046;4.724;2023-07-22T13:13:55;4.82;;;2.72;;
27539;SDS011;15906;52.046;4.724;2023-07-22T13:16:21;1.83;;;1.42;;
27539;SDS011;15906;52.046;4.724;2023-07-22T13:18:46;3.15;;;2.00;;
27539;SDS011;15906;52.046;4.724;2023-07-22T13:21:12;4.32;;;1.85;;
27539;SDS011;15906;52.046;4.724;2023-07-22T13:23:37;4.95;;;2.20;;
27539;SDS011;15906;52.046;4.724;2023-07-22T13:26:03;6.28;;;2.20;;
27539;SDS011;15906;52.046;4.724;2023-07-22T13:28:28;6.43;;;1.98;;
27539;SDS011;15906;52.046;4.724;2023-07-22T13:30:54;4.20;;;1.70;;
27539;SDS011;15906;52.046;4.724;2023-07-22T13:33:19;3.67;;;1.60;;
27539;SDS011;15906;52.046;4.724;2023-07-22T13:35:45;3.70;;;1.73;;
27539;SDS011;15906;52.046;4.724;2023-07-22T13:38:10;7.50;;;1.95;;
27539;SDS011;15906;52.046;4.724;2023-07-22T13:40:36;2.88;;;1.75;;
27539;SDS011;15906;52.046;4.724;2023-07-22T13:43:01;2.55;;;1.45;;
27539;SDS011;15906;52.046;4.724;2023-07-22T13:45:27;5.45;;;1.80;;
27539;SDS011;15906;52.046;4.724;2023-07-22T13:47:53;5.40;;;2.05;;
27539;SDS011;15906;52.046;4.724;2023-07-22T13:50:18;5.00;;;2.33;;
27539;SDS011;15906;52.046;4.724;2023-07-22T13:52:44;5.10;;;1.98;;
27539;SDS011;15906;52.046;4.724;2023-07-22T13:55:09;6.30;;;2.47;;
27539;SDS011;15906;52.046;4.724;2023-07-22T13:57:35;3.53;;;1.63;;
27539;SDS011;15906;52.046;4.724;2023-07-22T14:00:01;2.45;;;1.60;;
27539;SDS011;15906;52.046;4.724;2023-07-22T14:02:31;3.30;;;1.58;;
27539;SDS011;15906;52.046;4.724;2023-07-22T14:04:57;3.55;;;1.35;;
27539;SDS011;15906;52.046;4.724;2023-07-22T14:07:23;5.75;;;1.90;;
27539;SDS011;15906;52.046;4.724;2023-07-22T14:09:48;6.68;;;1.83;;
27539;SDS011;15906;52.046;4.724;2023-07-22T14:12:14;4.85;;;1.83;;
27539;SDS011;15906;52.046;4.724;2023-07-22T14:14:40;3.88;;;1.80;;
27539;SDS011;15906;52.046;4.724;2023-07-22T14:17:05;2.30;;;1.60;;
27539;SDS011;15906;52.046;4.724;2023-07-22T14:19:31;2.92;;;1.60;;
27539;SDS011;15906;52.046;4.724;2023-07-22T14:21:57;2.78;;;1.63;;
27539;SDS011;15906;52.046;4.724;2023-07-22T14:24:22;3.90;;;1.70;;
27539;SDS011;15906;52.046;4.724;2023-07-22T14:26:48;3.15;;;1.73;;
27539;SDS011;15906;52.046;4.724;2023-07-22T14:29:14;5.25;;;1.77;;
27539;SDS011;15906;52.046;4.724;2023-07-22T14:31:41;4.40;;;1.98;;
27539;SDS011;15906;52.046;4.724;2023-07-22T14:34:08;3.88;;;1.80;;
27539;SDS011;15906;52.046;4.724;2023-07-22T14:36:33;4.75;;;1.80;;
27539;SDS011;15906;52.046;4.724;2023-07-22T14:38:59;5.35;;;2.05;;
27539;SDS011;15906;52.046;4.724;2023-07-22T14:41:25;3.30;;;2.25;;
27539;SDS011;15906;52.046;4.724;2023-07-22T14:43:50;5.82;;;2.05;;